sensor_id;sensor_type;location;lat;lon;timestamp;temperature;humidity
35692;DHT22;26978;44.830;-0.674;2023-02-28T00:00:50;-1.00;99.90
35692;DHT22;26978;44.830;-0.674;2023-02-28T00:03:16;-1.00;99.90
35692;DHT22;26978;44.830;-0.674;2023-02-28T00:05:42;-1.00;99.90
35692;DHT22;26978;44.830;-0.674;2023-02-28T00:08:08;-1.00;99.90
35692;DHT22;26978;44.830;-0.674;2023-02-28T00:10:39;-1.10;99.90
35692;DHT22;26978;44.830;-0.674;2023-02-28T00:13:07;-1.10;99.90
35692;DHT22;26978;44.830;-0.674;2023-02-28T00:15:33;-1.10;99.90
35692;DHT22;26978;44.830;-0.674;2023-02-28T00:17:59;-1.20;99.90
35692;DHT22;26978;44.830;-0.674;2023-02-28T00:20:24;-1.30;99.90
35692;DHT22;26978;44.830;-0.674;2023-02-28T00:22:51;-1.30;99.90
35692;DHT22;26978;44.830;-0.674;2023-02-28T00:25:18;-1.20;99.90
35692;DHT22;26978;44.830;-0.674;2023-02-28T00:27:44;-1.20;99.90
35692;DHT22;26978;44.830;-0.674;2023-02-28T00:30:10;-1.30;99.90
35692;DHT22;26978;44.830;-0.674;2023-02-28T00:32:37;-1.30;99.90
35692;DHT22;26978;44.830;-0.674;2023-02-28T00:35:03;-1.40;99.90
35692;DHT22;26978;44.830;-0.674;2023-02-28T00:37:29;-1.40;99.90
35692;DHT22;26978;44.830;-0.674;2023-02-28T00:39:54;-1.40;99.90
35692;DHT22;26978;44.830;-0.674;2023-02-28T00:42:20;-1.40;99.90
35692;DHT22;26978;44.830;-0.674;2023-02-28T00:44:46;-1.30;99.90
35692;DHT22;26978;44.830;-0.674;2023-02-28T00:47:11;-1.20;99.90
35692;DHT22;26978;44.830;-0.674;2023-02-28T00:49:37;-1.00;99.90
35692;DHT22;26978;44.830;-0.674;2023-02-28T00:52:02;-0.80;99.90
35692;DHT22;26978;44.830;-0.674;2023-02-28T00:54:28;-0.80;99.90
35692;DHT22;26978;44.830;-0.674;2023-02-28T00:56:54;-0.60;99.90
35692;DHT22;26978;44.830;-0.674;2023-02-28T00:59:20;-0.50;99.90
35692;DHT22;26978;44.830;-0.674;2023-02-28T01:01:46;-0.40;99.90
35692;DHT22;26978;44.830;-0.674;2023-02-28T01:04:12;-0.30;99.90
35692;DHT22;26978;44.830;-0.674;2023-02-28T01:06:38;-0.30;99.90
35692;DHT22;26978;44.830;-0.674;2023-02-28T01:09:04;-0.20;99.90
35692;DHT22;26978;44.830;-0.674;2023-02-28T01:11:30;-0.20;99.90
35692;DHT22;26978;44.830;-0.674;2023-02-28T01:13:56;-0.20;99.90
35692;DHT22;26978;44.830;-0.674;2023-02-28T01:16:21;-0.20;99.90
35692;DHT22;26978;44.830;-0.674;2023-02-28T01:18:47;-0.30;99.90
35692;DHT22;26978;44.830;-0.674;2023-02-28T01:21:14;-0.20;99.90
35692;DHT22;26978;44.830;-0.674;2023-02-28T01:23:40;-0.20;99.90
35692;DHT22;26978;44.830;-0.674;2023-02-28T01:26:14;-0.20;99.90
35692;DHT22;26978;44.830;-0.674;2023-02-28T01:28:40;-0.20;99.90
35692;DHT22;26978;44.830;-0.674;2023-02-28T01:31:06;-0.20;99.90
35692;DHT22;26978;44.830;-0.674;2023-02-28T01:33:35;-0.10;99.90
35692;DHT22;26978;44.830;-0.674;2023-02-28T01:36:09;0.00;99.90
35692;DHT22;26978;44.830;-0.674;2023-02-28T01:38:35;0.00;99.90
35692;DHT22;26978;44.830;-0.674;2023-02-28T01:41:01;-0.10;99.90
35692;DHT22;26978;44.830;-0.674;2023-02-28T01:43:31;-0.20;99.90
35692;DHT22;26978;44.830;-0.674;2023-02-28T01:45:58;-0.10;99.90
35692;DHT22;26978;44.830;-0.674;2023-02-28T01:48:26;-0.10;99.90
35692;DHT22;26978;44.830;-0.674;2023-02-28T01:50:53;-0.10;99.90
35692;DHT22;26978;44.830;-0.674;2023-02-28T01:53:21;-0.10;99.90
35692;DHT22;26978;44.830;-0.674;2023-02-28T01:55:49;-0.10;99.90
35692;DHT22;26978;44.830;-0.674;2023-02-28T01:58:17;0.00;99.90
35692;DHT22;26978;44.830;-0.674;2023-02-28T02:00:43;0.00;99.90
35692;DHT22;26978;44.830;-0.674;2023-02-28T02:03:09;0.00;99.90
35692;DHT22;26978;44.830;-0.674;2023-02-28T02:05:35;0.00;99.90
35692;DHT22;26978;44.830;-0.674;2023-02-28T02:08:02;0.00;99.90
35692;DHT22;26978;44.830;-0.674;2023-02-28T02:10:42;0.00;99.90
35692;DHT22;26978;44.830;-0.674;2023-02-28T02:18:22;0.00;99.90
35692;DHT22;26978;44.830;-0.674;2023-02-28T02:20:56;0.10;99.90
35692;DHT22;26978;44.830;-0.674;2023-02-28T02:23:30;0.10;99.90
35692;DHT22;26978;44.830;-0.674;2023-02-28T02:26:07;0.10;99.90
35692;DHT22;26978;44.830;-0.674;2023-02-28T02:29:03;0.20;99.90
35692;DHT22;26978;44.830;-0.674;2023-02-28T02:31:28;0.20;99.90
35692;DHT22;26978;44.830;-0.674;2023-02-28T02:36:47;0.30;99.90
35692;DHT22;26978;44.830;-0.674;2023-02-28T02:39:27;0.30;99.90
35692;DHT22;26978;44.830;-0.674;2023-02-28T02:41:56;0.30;99.90
35692;DHT22;26978;44.830;-0.674;2023-02-28T02:46:50;0.30;99.90
35692;DHT22;26978;44.830;-0.674;2023-02-28T02:49:20;0.30;99.90
35692;DHT22;26978;44.830;-0.674;2023-02-28T02:51:47;0.30;99.90
35692;DHT22;26978;44.830;-0.674;2023-02-28T02:54:15;0.30;99.90
35692;DHT22;26978;44.830;-0.674;2023-02-28T02:56:43;0.30;99.90
35692;DHT22;26978;44.830;-0.674;2023-02-28T02:59:10;0.20;99.90
35692;DHT22;26978;44.830;-0.674;2023-02-28T03:01:37;0.20;99.90
35692;DHT22;26978;44.830;-0.674;2023-02-28T03:04:11;0.30;99.90
35692;DHT22;26978;44.830;-0.674;2023-02-28T03:06:39;0.30;99.90
35692;DHT22;26978;44.830;-0.674;2023-02-28T03:09:04;0.30;99.90
35692;DHT22;26978;44.830;-0.674;2023-02-28T03:11:30;0.30;99.90
35692;DHT22;26978;44.830;-0.674;2023-02-28T03:16:33;0.20;99.90
35692;DHT22;26978;44.830;-0.674;2023-02-28T03:21:34;0.10;99.90
35692;DHT22;26978;44.830;-0.674;2023-02-28T03:26:54;0.00;99.90
35692;DHT22;26978;44.830;-0.674;2023-02-28T03:31:48;0.00;99.90
35692;DHT22;26978;44.830;-0.674;2023-02-28T03:34:35;0.00;99.90
35692;DHT22;26978;44.830;-0.674;2023-02-28T03:37:04;0.00;99.90
35692;DHT22;26978;44.830;-0.674;2023-02-28T03:39:55;-0.10;99.90
35692;DHT22;26978;44.830;-0.674;2023-02-28T03:42:20;-0.10;99.90
35692;DHT22;26978;44.830;-0.674;2023-02-28T03:44:51;-0.20;99.90
35692;DHT22;26978;44.830;-0.674;2023-02-28T03:47:19;-0.20;99.90
35692;DHT22;26978;44.830;-0.674;2023-02-28T03:49:49;-0.20;99.90
35692;DHT22;26978;44.830;-0.674;2023-02-28T03:52:17;-0.30;99.90
35692;DHT22;26978;44.830;-0.674;2023-02-28T03:54:45;-0.30;99.90
35692;DHT22;26978;44.830;-0.674;2023-02-28T03:59:59;-0.30;99.90
35692;DHT22;26978;44.830;-0.674;2023-02-28T04:02:25;-0.30;99.90
35692;DHT22;26978;44.830;-0.674;2023-02-28T04:04:50;-0.40;99.90
35692;DHT22;26978;44.830;-0.674;2023-02-28T04:07:16;-0.40;99.90
35692;DHT22;26978;44.830;-0.674;2023-02-28T04:09:42;-0.40;99.90
35692;DHT22;26978;44.830;-0.674;2023-02-28T04:12:08;-0.40;99.90
35692;DHT22;26978;44.830;-0.674;2023-02-28T04:14:34;-0.40;99.90
35692;DHT22;26978;44.830;-0.674;2023-02-28T04:16:59;-0.40;99.90
35692;DHT22;26978;44.830;-0.674;2023-02-28T04:19:25;-0.40;99.90
35692;DHT22;26978;44.830;-0.674;2023-02-28T04:21:52;-0.50;99.90
35692;DHT22;26978;44.830;-0.674;2023-02-28T04:24:22;-0.50;99.90
35692;DHT22;26978;44.830;-0.674;2023-02-28T04:26:50;-0.50;99.90
35692;DHT22;26978;44.830;-0.674;2023-02-28T04:29:21;-0.60;99.90
35692;DHT22;26978;44.830;-0.674;2023-02-28T04:31:50;-0.60;99.90
35692;DHT22;26978;44.830;-0.674;2023-02-28T04:34:15;-0.60;99.90
35692;DHT22;26978;44.830;-0.674;2023-02-28T04:36:41;-0.60;99.90
35692;DHT22;26978;44.830;-0.674;2023-02-28T04:39:07;-0.70;99.90
35692;DHT22;26978;44.830;-0.674;2023-02-28T04:41:34;-0.60;99.90
35692;DHT22;26978;44.830;-0.674;2023-02-28T04:44:00;-0.50;99.90
35692;DHT22;26978;44.830;-0.674;2023-02-28T04:46:26;-0.60;99.90
35692;DHT22;26978;44.830;-0.674;2023-02-28T04:48:52;-0.70;99.90
35692;DHT22;26978;44.830;-0.674;2023-02-28T04:51:18;-0.60;99.90
35692;DHT22;26978;44.830;-0.674;2023-02-28T04:53:45;-0.60;99.90
35692;DHT22;26978;44.830;-0.674;2023-02-28T04:56:14;-0.70;99.90
35692;DHT22;26978;44.830;-0.674;2023-02-28T04:58:40;-0.70;99.90
35692;DHT22;26978;44.830;-0.674;2023-02-28T05:01:06;-0.80;99.90
35692;DHT22;26978;44.830;-0.674;2023-02-28T05:03:40;-0.90;99.90
35692;DHT22;26978;44.830;-0.674;2023-02-28T05:06:10;-0.90;99.90
35692;DHT22;26978;44.830;-0.674;2023-02-28T05:08:36;-0.80;99.90
35692;DHT22;26978;44.830;-0.674;2023-02-28T05:11:02;-0.90;99.90
35692;DHT22;26978;44.830;-0.674;2023-02-28T05:13:28;-0.90;99.90
35692;DHT22;26978;44.830;-0.674;2023-02-28T05:15:54;-0.80;99.90
35692;DHT22;26978;44.830;-0.674;2023-02-28T05:18:20;-0.80;99.90
35692;DHT22;26978;44.830;-0.674;2023-02-28T05:20:46;-0.80;99.90
35692;DHT22;26978;44.830;-0.674;2023-02-28T05:23:12;-0.90;99.90
35692;DHT22;26978;44.830;-0.674;2023-02-28T05:25:38;-0.90;99.90
35692;DHT22;26978;44.830;-0.674;2023-02-28T05:28:04;-0.90;99.90
35692;DHT22;26978;44.830;-0.674;2023-02-28T05:30:30;-0.90;99.90
35692;DHT22;26978;44.830;-0.674;2023-02-28T05:32:57;-1.00;99.90
35692;DHT22;26978;44.830;-0.674;2023-02-28T05:35:22;-1.00;99.90
35692;DHT22;26978;44.830;-0.674;2023-02-28T05:37:48;-0.90;99.90
35692;DHT22;26978;44.830;-0.674;2023-02-28T05:40:14;-0.90;99.90
35692;DHT22;26978;44.830;-0.674;2023-02-28T05:42:40;-1.00;99.90
35692;DHT22;26978;44.830;-0.674;2023-02-28T05:45:06;-1.10;99.90
35692;DHT22;26978;44.830;-0.674;2023-02-28T05:47:32;-1.10;99.90
35692;DHT22;26978;44.830;-0.674;2023-02-28T05:50:00;-1.00;99.90
35692;DHT22;26978;44.830;-0.674;2023-02-28T05:52:26;-1.00;99.90
35692;DHT22;26978;44.830;-0.674;2023-02-28T05:54:52;-1.10;99.90
35692;DHT22;26978;44.830;-0.674;2023-02-28T05:57:18;-1.10;99.90
35692;DHT22;26978;44.830;-0.674;2023-02-28T05:59:43;-1.10;99.90
35692;DHT22;26978;44.830;-0.674;2023-02-28T06:02:13;-1.10;99.90
35692;DHT22;26978;44.830;-0.674;2023-02-28T06:04:39;-1.10;99.90
35692;DHT22;26978;44.830;-0.674;2023-02-28T06:07:06;-1.00;99.90
35692;DHT22;26978;44.830;-0.674;2023-02-28T06:09:32;-1.00;99.90
35692;DHT22;26978;44.830;-0.674;2023-02-28T06:11:58;-1.10;99.90
35692;DHT22;26978;44.830;-0.674;2023-02-28T06:14:24;-1.20;99.90
35692;DHT22;26978;44.830;-0.674;2023-02-28T06:16:50;-1.30;99.90
35692;DHT22;26978;44.830;-0.674;2023-02-28T06:19:16;-1.20;99.90
35692;DHT22;26978;44.830;-0.674;2023-02-28T06:21:42;-1.30;99.90
35692;DHT22;26978;44.830;-0.674;2023-02-28T06:24:08;-1.30;99.90
35692;DHT22;26978;44.830;-0.674;2023-02-28T06:26:34;-1.20;99.90
35692;DHT22;26978;44.830;-0.674;2023-02-28T06:28:59;-1.20;99.90
35692;DHT22;26978;44.830;-0.674;2023-02-28T06:31:26;-1.30;99.90
35692;DHT22;26978;44.830;-0.674;2023-02-28T06:33:54;-1.30;99.90
35692;DHT22;26978;44.830;-0.674;2023-02-28T06:36:20;-1.30;99.90
35692;DHT22;26978;44.830;-0.674;2023-02-28T06:38:46;-1.30;99.90
35692;DHT22;26978;44.830;-0.674;2023-02-28T06:41:16;-1.30;99.90
35692;DHT22;26978;44.830;-0.674;2023-02-28T06:43:43;-1.30;99.90
35692;DHT22;26978;44.830;-0.674;2023-02-28T06:46:19;-1.30;99.90
35692;DHT22;26978;44.830;-0.674;2023-02-28T06:48:45;-1.30;99.90
35692;DHT22;26978;44.830;-0.674;2023-02-28T06:51:13;-1.30;99.90
35692;DHT22;26978;44.830;-0.674;2023-02-28T06:53:40;-1.40;99.90
35692;DHT22;26978;44.830;-0.674;2023-02-28T06:56:06;-1.40;99.90
35692;DHT22;26978;44.830;-0.674;2023-02-28T06:58:34;-1.30;99.90
35692;DHT22;26978;44.830;-0.674;2023-02-28T07:01:00;-1.30;99.90
35692;DHT22;26978;44.830;-0.674;2023-02-28T07:03:26;-1.30;99.90
35692;DHT22;26978;44.830;-0.674;2023-02-28T07:05:52;-1.30;99.90
35692;DHT22;26978;44.830;-0.674;2023-02-28T07:08:17;-1.40;99.90
35692;DHT22;26978;44.830;-0.674;2023-02-28T07:10:43;-1.40;99.90
35692;DHT22;26978;44.830;-0.674;2023-02-28T07:13:09;-1.30;99.90
35692;DHT22;26978;44.830;-0.674;2023-02-28T07:15:36;-1.30;99.90
35692;DHT22;26978;44.830;-0.674;2023-02-28T07:18:01;-1.20;99.90
35692;DHT22;26978;44.830;-0.674;2023-02-28T07:20:27;-1.20;99.90
35692;DHT22;26978;44.830;-0.674;2023-02-28T07:22:53;-1.20;99.90
35692;DHT22;26978;44.830;-0.674;2023-02-28T07:25:26;-1.10;99.90
35692;DHT22;26978;44.830;-0.674;2023-02-28T07:27:55;-1.10;99.90
35692;DHT22;26978;44.830;-0.674;2023-02-28T07:30:21;-1.10;99.90
35692;DHT22;26978;44.830;-0.674;2023-02-28T07:32:47;-1.10;99.90
35692;DHT22;26978;44.830;-0.674;2023-02-28T07:35:12;-1.00;99.90
35692;DHT22;26978;44.830;-0.674;2023-02-28T07:37:41;-0.90;99.90
35692;DHT22;26978;44.830;-0.674;2023-02-28T07:40:07;-0.90;99.90
35692;DHT22;26978;44.830;-0.674;2023-02-28T07:42:35;-0.90;99.90
35692;DHT22;26978;44.830;-0.674;2023-02-28T07:45:01;-0.80;99.90
35692;DHT22;26978;44.830;-0.674;2023-02-28T07:47:28;-0.70;99.90
35692;DHT22;26978;44.830;-0.674;2023-02-28T07:49:54;-0.60;99.90
35692;DHT22;26978;44.830;-0.674;2023-02-28T07:52:19;-0.50;99.90
35692;DHT22;26978;44.830;-0.674;2023-02-28T07:54:45;-0.50;99.90
35692;DHT22;26978;44.830;-0.674;2023-02-28T07:57:11;-0.50;99.90
35692;DHT22;26978;44.830;-0.674;2023-02-28T07:59:36;-0.40;99.90
35692;DHT22;26978;44.830;-0.674;2023-02-28T08:04:37;-0.30;99.90
35692;DHT22;26978;44.830;-0.674;2023-02-28T08:07:12;-0.20;99.90
35692;DHT22;26978;44.830;-0.674;2023-02-28T08:09:56;-0.10;99.90
35692;DHT22;26978;44.830;-0.674;2023-02-28T08:12:21;0.00;99.90
35692;DHT22;26978;44.830;-0.674;2023-02-28T08:14:47;0.10;99.90
35692;DHT22;26978;44.830;-0.674;2023-02-28T08:17:13;0.10;99.90
35692;DHT22;26978;44.830;-0.674;2023-02-28T08:19:38;0.20;99.90
35692;DHT22;26978;44.830;-0.674;2023-02-28T08:22:04;0.30;99.90
35692;DHT22;26978;44.830;-0.674;2023-02-28T08:24:29;0.30;99.90
35692;DHT22;26978;44.830;-0.674;2023-02-28T08:26:55;0.40;99.90
35692;DHT22;26978;44.830;-0.674;2023-02-28T08:29:21;0.50;99.90
35692;DHT22;26978;44.830;-0.674;2023-02-28T08:31:50;0.50;99.90
35692;DHT22;26978;44.830;-0.674;2023-02-28T08:34:15;0.60;99.90
35692;DHT22;26978;44.830;-0.674;2023-02-28T08:36:41;0.70;99.90
35692;DHT22;26978;44.830;-0.674;2023-02-28T08:39:09;0.80;99.90
35692;DHT22;26978;44.830;-0.674;2023-02-28T08:41:35;0.80;99.90
35692;DHT22;26978;44.830;-0.674;2023-02-28T08:44:00;0.90;99.90
35692;DHT22;26978;44.830;-0.674;2023-02-28T08:46:26;1.00;99.90
35692;DHT22;26978;44.830;-0.674;2023-02-28T08:48:53;1.00;99.90
35692;DHT22;26978;44.830;-0.674;2023-02-28T08:51:19;1.10;99.90
35692;DHT22;26978;44.830;-0.674;2023-02-28T08:54:09;1.20;99.90
35692;DHT22;26978;44.830;-0.674;2023-02-28T08:56:37;1.20;99.90
35692;DHT22;26978;44.830;-0.674;2023-02-28T08:59:03;1.20;99.90
35692;DHT22;26978;44.830;-0.674;2023-02-28T09:01:29;1.20;99.90
35692;DHT22;26978;44.830;-0.674;2023-02-28T09:03:55;1.20;99.90
35692;DHT22;26978;44.830;-0.674;2023-02-28T09:06:22;1.40;99.90
35692;DHT22;26978;44.830;-0.674;2023-02-28T09:08:48;1.50;99.90
35692;DHT22;26978;44.830;-0.674;2023-02-28T09:11:14;1.60;99.90
35692;DHT22;26978;44.830;-0.674;2023-02-28T09:13:40;1.60;99.90
35692;DHT22;26978;44.830;-0.674;2023-02-28T09:16:06;1.70;99.90
35692;DHT22;26978;44.830;-0.674;2023-02-28T09:18:35;1.80;99.90
35692;DHT22;26978;44.830;-0.674;2023-02-28T09:21:05;1.80;99.90
35692;DHT22;26978;44.830;-0.674;2023-02-28T09:23:31;1.90;99.90
35692;DHT22;26978;44.830;-0.674;2023-02-28T09:25:56;1.90;99.90
35692;DHT22;26978;44.830;-0.674;2023-02-28T09:28:22;2.00;99.90
35692;DHT22;26978;44.830;-0.674;2023-02-28T09:30:49;2.10;99.90
35692;DHT22;26978;44.830;-0.674;2023-02-28T09:33:15;2.10;99.90
35692;DHT22;26978;44.830;-0.674;2023-02-28T09:35:41;2.20;99.90
35692;DHT22;26978;44.830;-0.674;2023-02-28T09:38:08;2.20;99.90
35692;DHT22;26978;44.830;-0.674;2023-02-28T09:40:38;2.20;99.90
35692;DHT22;26978;44.830;-0.674;2023-02-28T09:43:05;2.30;99.90
35692;DHT22;26978;44.830;-0.674;2023-02-28T09:45:35;2.20;99.90
35692;DHT22;26978;44.830;-0.674;2023-02-28T09:48:03;2.30;99.90
35692;DHT22;26978;44.830;-0.674;2023-02-28T09:50:31;2.50;99.90
35692;DHT22;26978;44.830;-0.674;2023-02-28T09:52:59;2.50;99.90
35692;DHT22;26978;44.830;-0.674;2023-02-28T09:55:28;2.70;99.90
35692;DHT22;26978;44.830;-0.674;2023-02-28T09:57:55;2.60;99.90
35692;DHT22;26978;44.830;-0.674;2023-02-28T10:00:24;2.60;99.90
35692;DHT22;26978;44.830;-0.674;2023-02-28T10:05:54;2.90;99.90
35692;DHT22;26978;44.830;-0.674;2023-02-28T10:08:30;2.90;99.90
35692;DHT22;26978;44.830;-0.674;2023-02-28T10:10:58;2.90;99.90
35692;DHT22;26978;44.830;-0.674;2023-02-28T10:13:32;2.90;99.90
35692;DHT22;26978;44.830;-0.674;2023-02-28T10:16:13;3.00;99.90
35692;DHT22;26978;44.830;-0.674;2023-02-28T10:18:47;3.10;99.90
35692;DHT22;26978;44.830;-0.674;2023-02-28T10:21:17;3.20;99.90
35692;DHT22;26978;44.830;-0.674;2023-02-28T10:23:44;3.30;99.90
35692;DHT22;26978;44.830;-0.674;2023-02-28T10:26:13;3.30;99.90
35692;DHT22;26978;44.830;-0.674;2023-02-28T10:28:41;3.40;99.90
35692;DHT22;26978;44.830;-0.674;2023-02-28T10:36:17;3.70;99.90
35692;DHT22;26978;44.830;-0.674;2023-02-28T10:41:29;3.70;99.90
35692;DHT22;26978;44.830;-0.674;2023-02-28T10:46:51;4.00;99.90
35692;DHT22;26978;44.830;-0.674;2023-02-28T10:49:22;4.00;99.90
35692;DHT22;26978;44.830;-0.674;2023-02-28T10:51:49;3.90;99.90
35692;DHT22;26978;44.830;-0.674;2023-02-28T10:54:18;4.00;99.90
35692;DHT22;26978;44.830;-0.674;2023-02-28T10:56:54;4.00;99.90
35692;DHT22;26978;44.830;-0.674;2023-02-28T10:59:32;4.00;99.60
35692;DHT22;26978;44.830;-0.674;2023-02-28T11:04:42;4.20;99.90
35692;DHT22;26978;44.830;-0.674;2023-02-28T11:07:30;4.30;99.90
35692;DHT22;26978;44.830;-0.674;2023-02-28T11:10:12;4.20;99.00
35692;DHT22;26978;44.830;-0.674;2023-02-28T11:23:18;4.70;99.30
35692;DHT22;26978;44.830;-0.674;2023-02-28T11:25:49;4.50;97.90
35692;DHT22;26978;44.830;-0.674;2023-02-28T11:28:32;4.50;97.80
35692;DHT22;26978;44.830;-0.674;2023-02-28T11:31:20;4.70;98.50
35692;DHT22;26978;44.830;-0.674;2023-02-28T11:33:52;4.60;97.50
35692;DHT22;26978;44.830;-0.674;2023-02-28T11:36:22;4.50;97.30
35692;DHT22;26978;44.830;-0.674;2023-02-28T11:39:04;4.60;97.10
35692;DHT22;26978;44.830;-0.674;2023-02-28T11:41:45;4.80;96.70
35692;DHT22;26978;44.830;-0.674;2023-02-28T11:46:52;4.90;96.10
35692;DHT22;26978;44.830;-0.674;2023-02-28T12:03:44;5.30;94.40
35692;DHT22;26978;44.830;-0.674;2023-02-28T12:27:22;6.00;92.50
35692;DHT22;26978;44.830;-0.674;2023-02-28T12:29:51;5.60;89.70
35692;DHT22;26978;44.830;-0.674;2023-02-28T12:32:27;5.60;90.90
35692;DHT22;26978;44.830;-0.674;2023-02-28T12:34:57;5.70;91.60
35692;DHT22;26978;44.830;-0.674;2023-02-28T12:37:27;6.00;90.80
35692;DHT22;26978;44.830;-0.674;2023-02-28T12:40:00;6.00;88.30
35692;DHT22;26978;44.830;-0.674;2023-02-28T12:42:30;5.70;87.20
35692;DHT22;26978;44.830;-0.674;2023-02-28T12:47:42;5.90;88.70
35692;DHT22;26978;44.830;-0.674;2023-02-28T12:50:14;6.10;86.20
35692;DHT22;26978;44.830;-0.674;2023-02-28T13:00:04;6.40;87.80
35692;DHT22;26978;44.830;-0.674;2023-02-28T13:10:19;5.30;86.80
35692;DHT22;26978;44.830;-0.674;2023-02-28T13:12:49;5.60;88.40
35692;DHT22;26978;44.830;-0.674;2023-02-28T13:15:25;6.20;85.40
35692;DHT22;26978;44.830;-0.674;2023-02-28T13:17:53;6.70;85.90
35692;DHT22;26978;44.830;-0.674;2023-02-28T13:25:52;6.10;79.40
35692;DHT22;26978;44.830;-0.674;2023-02-28T13:28:56;5.90;83.70
35692;DHT22;26978;44.830;-0.674;2023-02-28T13:31:05;6.00;83.30
35692;DHT22;26978;44.830;-0.674;2023-02-28T13:33:34;6.20;82.80
35692;DHT22;26978;44.830;-0.674;2023-02-28T13:38:57;7.40;79.60
35692;DHT22;26978;44.830;-0.674;2023-02-28T13:47:27;6.40;78.20
35692;DHT22;26978;44.830;-0.674;2023-02-28T13:49:27;7.10;81.50
35692;DHT22;26978;44.830;-0.674;2023-02-28T13:57:50;6.70;76.40
35692;DHT22;26978;44.830;-0.674;2023-02-28T14:02:51;7.90;88.80
35692;DHT22;26978;44.830;-0.674;2023-02-28T14:05:21;8.90;74.90
35692;DHT22;26978;44.830;-0.674;2023-02-28T14:07:54;8.30;69.80
35692;DHT22;26978;44.830;-0.674;2023-02-28T14:13:13;7.10;74.00
35692;DHT22;26978;44.830;-0.674;2023-02-28T14:15:46;6.80;75.30
35692;DHT22;26978;44.830;-0.674;2023-02-28T14:18:27;8.00;76.50
35692;DHT22;26978;44.830;-0.674;2023-02-28T14:26:28;6.70;76.90
35692;DHT22;26978;44.830;-0.674;2023-02-28T14:31:48;10.30;70.50
35692;DHT22;26978;44.830;-0.674;2023-02-28T14:37:09;11.30;52.10
35692;DHT22;26978;44.830;-0.674;2023-02-28T14:39:45;8.70;50.90
35692;DHT22;26978;44.830;-0.674;2023-02-28T14:42:28;8.50;57.90
35692;DHT22;26978;44.830;-0.674;2023-02-28T14:44:54;9.10;60.50
35692;DHT22;26978;44.830;-0.674;2023-02-28T15:00:30;9.30;50.10
35692;DHT22;26978;44.830;-0.674;2023-02-28T15:08:11;8.90;59.60
35692;DHT22;26978;44.830;-0.674;2023-02-28T15:15:49;10.90;46.00
35692;DHT22;26978;44.830;-0.674;2023-02-28T15:21:14;10.90;46.20
35692;DHT22;26978;44.830;-0.674;2023-02-28T15:23:48;10.50;48.80
35692;DHT22;26978;44.830;-0.674;2023-02-28T15:26:57;10.60;48.20
35692;DHT22;26978;44.830;-0.674;2023-02-28T15:29:42;9.30;46.60
35692;DHT22;26978;44.830;-0.674;2023-02-28T15:32:29;8.60;48.40
35692;DHT22;26978;44.830;-0.674;2023-02-28T15:34:55;10.30;54.80
35692;DHT22;26978;44.830;-0.674;2023-02-28T15:39:55;9.60;46.30
35692;DHT22;26978;44.830;-0.674;2023-02-28T15:42:21;8.60;46.60
35692;DHT22;26978;44.830;-0.674;2023-02-28T15:44:50;8.20;50.40
35692;DHT22;26978;44.830;-0.674;2023-02-28T15:47:23;8.20;51.00
35692;DHT22;26978;44.830;-0.674;2023-02-28T15:49:58;8.60;53.00
35692;DHT22;26978;44.830;-0.674;2023-02-28T15:54:52;8.20;53.80
35692;DHT22;26978;44.830;-0.674;2023-02-28T15:57:25;7.80;56.20
35692;DHT22;26978;44.830;-0.674;2023-02-28T15:59:59;7.00;58.00
35692;DHT22;26978;44.830;-0.674;2023-02-28T16:02:30;6.70;61.30
35692;DHT22;26978;44.830;-0.674;2023-02-28T16:07:50;6.50;67.10
35692;DHT22;26978;44.830;-0.674;2023-02-28T16:10:22;7.30;66.10
35692;DHT22;26978;44.830;-0.674;2023-02-28T16:12:52;7.60;61.80
35692;DHT22;26978;44.830;-0.674;2023-02-28T16:17:48;6.60;65.90
35692;DHT22;26978;44.830;-0.674;2023-02-28T16:20:20;6.90;67.30
35692;DHT22;26978;44.830;-0.674;2023-02-28T16:22:55;7.80;64.70
35692;DHT22;26978;44.830;-0.674;2023-02-28T16:25:35;8.20;64.30
35692;DHT22;26978;44.830;-0.674;2023-02-28T16:28:04;8.00;64.30
35692;DHT22;26978;44.830;-0.674;2023-02-28T16:30:38;7.60;66.10
35692;DHT22;26978;44.830;-0.674;2023-02-28T16:33:03;7.30;64.80
35692;DHT22;26978;44.830;-0.674;2023-02-28T16:35:31;6.80;66.40
35692;DHT22;26978;44.830;-0.674;2023-02-28T16:37:57;6.10;67.10
35692;DHT22;26978;44.830;-0.674;2023-02-28T16:40:34;5.70;69.80
35692;DHT22;26978;44.830;-0.674;2023-02-28T16:43:16;5.50;72.10
35692;DHT22;26978;44.830;-0.674;2023-02-28T16:45:46;5.30;73.40
35692;DHT22;26978;44.830;-0.674;2023-02-28T16:48:13;5.30;75.70
35692;DHT22;26978;44.830;-0.674;2023-02-28T16:50:39;5.60;75.40
35692;DHT22;26978;44.830;-0.674;2023-02-28T16:53:05;5.80;73.50
35692;DHT22;26978;44.830;-0.674;2023-02-28T17:08:27;5.80;76.10
35692;DHT22;26978;44.830;-0.674;2023-02-28T17:10:54;5.60;76.30
35692;DHT22;26978;44.830;-0.674;2023-02-28T17:13:22;5.40;78.80
35692;DHT22;26978;44.830;-0.674;2023-02-28T17:16:13;5.40;78.70
35692;DHT22;26978;44.830;-0.674;2023-02-28T17:23:52;5.10;79.60
35692;DHT22;26978;44.830;-0.674;2023-02-28T17:26:18;5.10;78.10
35692;DHT22;26978;44.830;-0.674;2023-02-28T17:28:53;5.00;77.70
35692;DHT22;26978;44.830;-0.674;2023-02-28T17:36:27;4.70;78.80
35692;DHT22;26978;44.830;-0.674;2023-02-28T17:38:53;4.70;80.10
35692;DHT22;26978;44.830;-0.674;2023-02-28T17:41:20;4.70;80.10
35692;DHT22;26978;44.830;-0.674;2023-02-28T17:43:46;4.60;80.30
35692;DHT22;26978;44.830;-0.674;2023-02-28T17:46:19;4.60;80.50
35692;DHT22;26978;44.830;-0.674;2023-02-28T17:48:49;4.70;82.50
35692;DHT22;26978;44.830;-0.674;2023-02-28T17:51:15;4.70;81.20
35692;DHT22;26978;44.830;-0.674;2023-02-28T17:53:41;4.60;82.50
35692;DHT22;26978;44.830;-0.674;2023-02-28T17:56:13;4.70;82.90
35692;DHT22;26978;44.830;-0.674;2023-02-28T17:58:40;4.60;81.50
35692;DHT22;26978;44.830;-0.674;2023-02-28T18:01:06;4.60;82.00
35692;DHT22;26978;44.830;-0.674;2023-02-28T18:03:32;4.60;84.00
35692;DHT22;26978;44.830;-0.674;2023-02-28T18:06:01;4.60;84.30
35692;DHT22;26978;44.830;-0.674;2023-02-28T18:08:32;4.60;84.00
35692;DHT22;26978;44.830;-0.674;2023-02-28T18:11:00;4.60;84.80
35692;DHT22;26978;44.830;-0.674;2023-02-28T18:13:26;4.60;85.30
35692;DHT22;26978;44.830;-0.674;2023-02-28T18:15:53;4.60;85.50
35692;DHT22;26978;44.830;-0.674;2023-02-28T18:18:22;4.60;86.80
35692;DHT22;26978;44.830;-0.674;2023-02-28T18:20:47;4.50;87.20
35692;DHT22;26978;44.830;-0.674;2023-02-28T18:23:15;4.50;85.70
35692;DHT22;26978;44.830;-0.674;2023-02-28T18:25:42;4.50;87.00
35692;DHT22;26978;44.830;-0.674;2023-02-28T18:28:07;4.50;85.50
35692;DHT22;26978;44.830;-0.674;2023-02-28T18:30:34;4.50;85.70
35692;DHT22;26978;44.830;-0.674;2023-02-28T18:33:01;4.50;86.50
35692;DHT22;26978;44.830;-0.674;2023-02-28T18:35:27;4.40;87.90
35692;DHT22;26978;44.830;-0.674;2023-02-28T18:38:00;4.40;88.20
35692;DHT22;26978;44.830;-0.674;2023-02-28T18:40:26;4.40;87.80
35692;DHT22;26978;44.830;-0.674;2023-02-28T18:42:53;4.50;87.70
35692;DHT22;26978;44.830;-0.674;2023-02-28T18:45:19;4.40;86.40
35692;DHT22;26978;44.830;-0.674;2023-02-28T18:47:44;4.40;86.90
35692;DHT22;26978;44.830;-0.674;2023-02-28T18:50:10;4.40;87.40
35692;DHT22;26978;44.830;-0.674;2023-02-28T18:52:37;4.40;89.60
35692;DHT22;26978;44.830;-0.674;2023-02-28T18:55:03;4.40;90.60
35692;DHT22;26978;44.830;-0.674;2023-02-28T18:57:28;4.40;90.20
35692;DHT22;26978;44.830;-0.674;2023-02-28T18:59:54;4.30;89.00